sensor_id;sensor_type;location;lat;lon;timestamp;pressure;altitude;pressure_sealevel;temperature;humidity
19128;BME280;9696;53.686;10.094;2023-02-28T00:01:44;102973.13;;;2.85;100.00
19128;BME280;9696;53.686;10.094;2023-02-28T00:04:13;102968.81;;;2.86;100.00
19128;BME280;9696;53.686;10.094;2023-02-28T00:06:42;102978.53;;;2.75;100.00
19128;BME280;9696;53.686;10.094;2023-02-28T00:09:13;102983.84;;;2.66;100.00
19128;BME280;9696;53.686;10.094;2023-02-28T00:11:42;102977.06;;;2.59;100.00
19128;BME280;9696;53.686;10.094;2023-02-28T00:14:11;102980.66;;;2.52;100.00
19128;BME280;9696;53.686;10.094;2023-02-28T00:16:40;102975.69;;;2.38;100.00
19128;BME280;9696;53.686;10.094;2023-02-28T00:19:10;102979.19;;;2.35;100.00
19128;BME280;9696;53.686;10.094;2023-02-28T00:21:41;102978.47;;;2.29;100.00
19128;BME280;9696;53.686;10.094;2023-02-28T00:24:10;102978.53;;;2.24;100.00
19128;BME280;9696;53.686;10.094;2023-02-28T00:26:41;102976.88;;;2.19;100.00
19128;BME280;9696;53.686;10.094;2023-02-28T00:29:10;102977.03;;;2.08;100.00
19128;BME280;9696;53.686;10.094;2023-02-28T00:31:39;102982.28;;;2.02;100.00
19128;BME280;9696;53.686;10.094;2023-02-28T00:34:08;102981.56;;;1.94;100.00
19128;BME280;9696;53.686;10.094;2023-02-28T00:36:37;102985.09;;;1.88;100.00
19128;BME280;9696;53.686;10.094;2023-02-28T00:39:06;102985.78;;;2.00;100.00
19128;BME280;9696;53.686;10.094;2023-02-28T00:41:35;102972.69;;;2.10;100.00
19128;BME280;9696;53.686;10.094;2023-02-28T00:44:06;102976.00;;;2.18;100.00
19128;BME280;9696;53.686;10.094;2023-02-28T00:46:35;102983.72;;;2.21;100.00
19128;BME280;9696;53.686;10.094;2023-02-28T00:49:04;102989.94;;;2.13;100.00
19128;BME280;9696;53.686;10.094;2023-02-28T00:51:36;102983.03;;;2.13;100.00
19128;BME280;9696;53.686;10.094;2023-02-28T00:54:05;102983.84;;;2.15;100.00
19128;BME280;9696;53.686;10.094;2023-02-28T00:56:34;102980.44;;;2.13;100.00
19128;BME280;9696;53.686;10.094;2023-02-28T00:59:06;102987.25;;;2.17;100.00
19128;BME280;9696;53.686;10.094;2023-02-28T01:01:35;102983.88;;;2.12;100.00
19128;BME280;9696;53.686;10.094;2023-02-28T01:04:04;102990.00;;;2.08;100.00
19128;BME280;9696;53.686;10.094;2023-02-28T01:06:33;102998.50;;;2.15;100.00
19128;BME280;9696;53.686;10.094;2023-02-28T01:09:04;102989.00;;;2.15;100.00
19128;BME280;9696;53.686;10.094;2023-02-28T01:11:34;102988.09;;;2.18;100.00
19128;BME280;9696;53.686;10.094;2023-02-28T01:14:05;102994.13;;;2.18;100.00
19128;BME280;9696;53.686;10.094;2023-02-28T01:16:34;102988.31;;;2.04;100.00
19128;BME280;9696;53.686;10.094;2023-02-28T01:19:03;102991.03;;;1.97;100.00
19128;BME280;9696;53.686;10.094;2023-02-28T01:21:32;102989.31;;;1.96;100.00
19128;BME280;9696;53.686;10.094;2023-02-28T01:24:03;102986.72;;;1.97;100.00
19128;BME280;9696;53.686;10.094;2023-02-28T01:26:33;102985.03;;;1.93;100.00
19128;BME280;9696;53.686;10.094;2023-02-28T01:29:02;102987.75;;;1.84;100.00
19128;BME280;9696;53.686;10.094;2023-02-28T01:31:33;102992.16;;;1.77;100.00
19128;BME280;9696;53.686;10.094;2023-02-28T01:34:02;102999.06;;;1.77;100.00
19128;BME280;9696;53.686;10.094;2023-02-28T01:36:32;102994.41;;;1.37;100.00
19128;BME280;9696;53.686;10.094;2023-02-28T01:39:01;102994.50;;;1.30;100.00
19128;BME280;9696;53.686;10.094;2023-02-28T01:41:32;102997.03;;;1.33;100.00
19128;BME280;9696;53.686;10.094;2023-02-28T01:44:05;102990.97;;;1.35;100.00
19128;BME280;9696;53.686;10.094;2023-02-28T01:46:36;102984.81;;;1.46;100.00
19128;BME280;9696;53.686;10.094;2023-02-28T01:49:08;102982.09;;;1.55;100.00
19128;BME280;9696;53.686;10.094;2023-02-28T01:51:41;102982.94;;;1.57;100.00
19128;BME280;9696;53.686;10.094;2023-02-28T01:54:16;102986.31;;;1.63;100.00
19128;BME280;9696;53.686;10.094;2023-02-28T01:56:51;102984.56;;;1.65;100.00
19128;BME280;9696;53.686;10.094;2023-02-28T01:59:24;102980.22;;;1.67;100.00
19128;BME280;9696;53.686;10.094;2023-02-28T02:01:57;102981.97;;;1.65;100.00
19128;BME280;9696;53.686;10.094;2023-02-28T02:04:31;102980.31;;;1.60;100.00
19128;BME280;9696;53.686;10.094;2023-02-28T02:07:01;102986.34;;;1.59;100.00
19128;BME280;9696;53.686;10.094;2023-02-28T02:09:30;102986.50;;;1.48;100.00
19128;BME280;9696;53.686;10.094;2023-02-28T02:12:01;102974.31;;;1.58;100.00
19128;BME280;9696;53.686;10.094;2023-02-28T02:14:55;102980.25;;;1.66;100.00
19128;BME280;9696;53.686;10.094;2023-02-28T02:17:34;102983.09;;;1.45;100.00
19128;BME280;9696;53.686;10.094;2023-02-28T02:26:51;102975.44;;;1.35;100.00
19128;BME280;9696;53.686;10.094;2023-02-28T02:29:55;102974.63;;;1.32;100.00
19128;BME280;9696;53.686;10.094;2023-02-28T02:32:54;102973.72;;;1.37;100.00
19128;BME280;9696;53.686;10.094;2023-02-28T02:35:37;102968.66;;;1.28;100.00
19128;BME280;9696;53.686;10.094;2023-02-28T02:38:11;102970.34;;;1.31;100.00
19128;BME280;9696;53.686;10.094;2023-02-28T02:40:49;102965.19;;;1.29;100.00
19128;BME280;9696;53.686;10.094;2023-02-28T02:43:25;102959.91;;;1.38;100.00
19128;BME280;9696;53.686;10.094;2023-02-28T02:46:01;102959.81;;;1.46;100.00
19128;BME280;9696;53.686;10.094;2023-02-28T02:48:35;102962.28;;;1.55;100.00
19128;BME280;9696;53.686;10.094;2023-02-28T02:51:09;102957.94;;;1.57;100.00
19128;BME280;9696;53.686;10.094;2023-02-28T02:53:46;102963.94;;;1.59;100.00
19128;BME280;9696;53.686;10.094;2023-02-28T02:56:21;102961.34;;;1.61;100.00
19128;BME280;9696;53.686;10.094;2023-02-28T02:58:56;102964.78;;;1.61;100.00
19128;BME280;9696;53.686;10.094;2023-02-28T03:01:30;102965.75;;;1.53;100.00
19128;BME280;9696;53.686;10.094;2023-02-28T03:04:03;102961.31;;;1.62;100.00
19128;BME280;9696;53.686;10.094;2023-02-28T03:06:34;102964.69;;;1.67;100.00
19128;BME280;9696;53.686;10.094;2023-02-28T03:09:04;102973.34;;;1.65;100.00
19128;BME280;9696;53.686;10.094;2023-02-28T03:11:34;102967.44;;;1.55;100.00
19128;BME280;9696;53.686;10.094;2023-02-28T03:14:25;102970.09;;;1.51;100.00
19128;BME280;9696;53.686;10.094;2023-02-28T03:17:13;102968.59;;;1.31;100.00
19128;BME280;9696;53.686;10.094;2023-02-28T03:19:51;102964.47;;;1.18;100.00
19128;BME280;9696;53.686;10.094;2023-02-28T03:22:39;102974.25;;;0.89;100.00
19128;BME280;9696;53.686;10.094;2023-02-28T03:25:18;102979.34;;;0.95;100.00
19128;BME280;9696;53.686;10.094;2023-02-28T03:27:58;102975.78;;;1.08;100.00
19128;BME280;9696;53.686;10.094;2023-02-28T03:30:36;102977.53;;;1.06;100.00
19128;BME280;9696;53.686;10.094;2023-02-28T03:33:09;102968.97;;;1.00;100.00
19128;BME280;9696;53.686;10.094;2023-02-28T03:35:43;102980.25;;;0.91;100.00
19128;BME280;9696;53.686;10.094;2023-02-28T03:38:18;102983.66;;;0.98;100.00
19128;BME280;9696;53.686;10.094;2023-02-28T03:40:51;102981.00;;;1.04;100.00
19128;BME280;9696;53.686;10.094;2023-02-28T03:43:28;102991.31;;;1.07;100.00
19128;BME280;9696;53.686;10.094;2023-02-28T03:46:00;102981.81;;;1.09;100.00
19128;BME280;9696;53.686;10.094;2023-02-28T03:48:37;102982.75;;;1.00;100.00
19128;BME280;9696;53.686;10.094;2023-02-28T03:51:09;102978.56;;;0.88;100.00
19128;BME280;9696;53.686;10.094;2023-02-28T03:53:44;102985.53;;;0.80;100.00
19128;BME280;9696;53.686;10.094;2023-02-28T03:56:17;102977.94;;;0.65;100.00
19128;BME280;9696;53.686;10.094;2023-02-28T03:58:51;102982.41;;;0.46;100.00
19128;BME280;9696;53.686;10.094;2023-02-28T04:01:26;102981.66;;;0.35;100.00
19128;BME280;9696;53.686;10.094;2023-02-28T04:03:57;102985.13;;;0.28;100.00
19128;BME280;9696;53.686;10.094;2023-02-28T04:06:27;102984.31;;;0.22;100.00
19128;BME280;9696;53.686;10.094;2023-02-28T04:09:00;102989.50;;;0.23;100.00
19128;BME280;9696;53.686;10.094;2023-02-28T04:11:34;102984.47;;;0.04;100.00
19128;BME280;9696;53.686;10.094;2023-02-28T04:14:04;102993.09;;;-0.01;100.00
19128;BME280;9696;53.686;10.094;2023-02-28T04:16:35;102987.06;;;-0.03;100.00
19128;BME280;9696;53.686;10.094;2023-02-28T04:19:05;102993.94;;;0.02;100.00
19128;BME280;9696;53.686;10.094;2023-02-28T04:21:36;102992.19;;;0.00;100.00
19128;BME280;9696;53.686;10.094;2023-02-28T04:24:09;102987.94;;;-0.04;100.00
19128;BME280;9696;53.686;10.094;2023-02-28T04:26:43;102990.59;;;-0.14;100.00
19128;BME280;9696;53.686;10.094;2023-02-28T04:29:14;102986.31;;;-0.18;100.00
19128;BME280;9696;53.686;10.094;2023-02-28T04:31:43;102995.00;;;-0.34;100.00
19128;BME280;9696;53.686;10.094;2023-02-28T04:34:12;102999.34;;;-0.45;100.00
19128;BME280;9696;53.686;10.094;2023-02-28T04:36:42;102994.25;;;-0.56;100.00
19128;BME280;9696;53.686;10.094;2023-02-28T04:39:12;102992.53;;;-0.56;100.00
19128;BME280;9696;53.686;10.094;2023-02-28T04:41:41;102999.41;;;-0.61;100.00
19128;BME280;9696;53.686;10.094;2023-02-28T04:44:11;102997.72;;;-0.74;100.00
19128;BME280;9696;53.686;10.094;2023-02-28T04:46:40;103000.34;;;-0.86;100.00
19128;BME280;9696;53.686;10.094;2023-02-28T04:49:09;102996.06;;;-0.90;100.00
19128;BME280;9696;53.686;10.094;2023-02-28T04:51:39;102996.06;;;-0.85;100.00
19128;BME280;9696;53.686;10.094;2023-02-28T04:54:09;102999.44;;;-0.73;100.00
19128;BME280;9696;53.686;10.094;2023-02-28T04:56:39;102994.22;;;-0.52;100.00
19128;BME280;9696;53.686;10.094;2023-02-28T04:59:08;102989.91;;;-0.51;100.00
19128;BME280;9696;53.686;10.094;2023-02-28T05:01:37;103000.25;;;-0.56;100.00
19128;BME280;9696;53.686;10.094;2023-02-28T05:04:06;102995.97;;;-0.63;100.00
19128;BME280;9696;53.686;10.094;2023-02-28T05:06:35;102998.56;;;-0.61;100.00
19128;BME280;9696;53.686;10.094;2023-02-28T05:09:04;102997.69;;;-0.60;100.00
19128;BME280;9696;53.686;10.094;2023-02-28T05:11:35;103002.00;;;-0.65;100.00
19128;BME280;9696;53.686;10.094;2023-02-28T05:14:10;103000.34;;;-0.75;100.00
19128;BME280;9696;53.686;10.094;2023-02-28T05:16:40;102996.91;;;-0.76;100.00
19128;BME280;9696;53.686;10.094;2023-02-28T05:19:09;102986.50;;;-0.56;100.00
19128;BME280;9696;53.686;10.094;2023-02-28T05:21:39;102997.66;;;-0.48;100.00
19128;BME280;9696;53.686;10.094;2023-02-28T05:24:10;103001.97;;;-0.62;100.00
19128;BME280;9696;53.686;10.094;2023-02-28T05:26:41;103001.19;;;-0.78;100.00
19128;BME280;9696;53.686;10.094;2023-02-28T05:29:12;103005.53;;;-0.87;100.00
19128;BME280;9696;53.686;10.094;2023-02-28T05:31:42;103010.69;;;-1.01;100.00
19128;BME280;9696;53.686;10.094;2023-02-28T05:34:11;103007.28;;;-1.03;100.00
19128;BME280;9696;53.686;10.094;2023-02-28T05:36:43;103013.25;;;-0.95;100.00
19128;BME280;9696;53.686;10.094;2023-02-28T05:39:12;103016.72;;;-1.11;100.00
19128;BME280;9696;53.686;10.094;2023-02-28T05:41:42;103021.03;;;-1.24;100.00
19128;BME280;9696;53.686;10.094;2023-02-28T05:44:12;103011.56;;;-1.29;100.00
19128;BME280;9696;53.686;10.094;2023-02-28T05:46:41;103019.31;;;-1.28;100.00
19128;BME280;9696;53.686;10.094;2023-02-28T05:49:10;103010.72;;;-1.31;100.00
19128;BME280;9696;53.686;10.094;2023-02-28T05:51:40;103019.31;;;-1.19;100.00
19128;BME280;9696;53.686;10.094;2023-02-28T05:54:09;103016.75;;;-1.19;100.00
19128;BME280;9696;53.686;10.094;2023-02-28T05:56:40;103023.59;;;-1.15;100.00
19128;BME280;9696;53.686;10.094;2023-02-28T05:59:13;103023.56;;;-1.13;100.00
19128;BME280;9696;53.686;10.094;2023-02-28T06:01:43;103033.03;;;-1.15;100.00
19128;BME280;9696;53.686;10.094;2023-02-28T06:04:17;103018.44;;;-1.13;100.00
19128;BME280;9696;53.686;10.094;2023-02-28T06:06:58;103024.41;;;-1.01;100.00
19128;BME280;9696;53.686;10.094;2023-02-28T06:09:28;103022.72;;;-1.00;100.00
19128;BME280;9696;53.686;10.094;2023-02-28T06:11:58;103024.38;;;-0.90;100.00
19128;BME280;9696;53.686;10.094;2023-02-28T06:14:29;103022.69;;;-0.97;100.00
19128;BME280;9696;53.686;10.094;2023-02-28T06:16:59;103026.13;;;-1.01;100.00
19128;BME280;9696;53.686;10.094;2023-02-28T06:19:28;103022.69;;;-1.02;100.00
19128;BME280;9696;53.686;10.094;2023-02-28T06:21:59;103027.84;;;-1.02;100.00
19128;BME280;9696;53.686;10.094;2023-02-28T06:24:28;103031.28;;;-1.06;100.00
19128;BME280;9696;53.686;10.094;2023-02-28T06:26:58;103032.13;;;-0.98;100.00
19128;BME280;9696;53.686;10.094;2023-02-28T06:29:34;103030.41;;;-0.85;100.00
19128;BME280;9696;53.686;10.094;2023-02-28T06:32:04;103033.81;;;-0.77;100.00
19128;BME280;9696;53.686;10.094;2023-02-28T06:34:33;103031.22;;;-0.74;100.00
19128;BME280;9696;53.686;10.094;2023-02-28T06:37:02;103042.41;;;-0.78;100.00
19128;BME280;9696;53.686;10.094;2023-02-28T06:39:31;103039.81;;;-0.73;100.00
19128;BME280;9696;53.686;10.094;2023-02-28T06:42:00;103042.41;;;-0.95;100.00
19128;BME280;9696;53.686;10.094;2023-02-28T06:44:30;103045.88;;;-0.94;100.00
19128;BME280;9696;53.686;10.094;2023-02-28T06:47:05;103044.13;;;-0.86;100.00
19128;BME280;9696;53.686;10.094;2023-02-28T06:49:35;103042.41;;;-0.78;100.00
19128;BME280;9696;53.686;10.094;2023-02-28T06:52:04;103048.28;;;-0.39;100.00
19128;BME280;9696;53.686;10.094;2023-02-28T06:54:33;103055.91;;;-0.14;100.00
19128;BME280;9696;53.686;10.094;2023-02-28T06:57:03;103039.56;;;-0.11;100.00
19128;BME280;9696;53.686;10.094;2023-02-28T06:59:32;103048.22;;;-0.27;100.00
19128;BME280;9696;53.686;10.094;2023-02-28T07:02:04;103042.25;;;-0.29;100.00
19128;BME280;9696;53.686;10.094;2023-02-28T07:04:34;103046.53;;;-0.25;100.00
19128;BME280;9696;53.686;10.094;2023-02-28T07:07:03;103042.19;;;-0.17;100.00
19128;BME280;9696;53.686;10.094;2023-02-28T07:09:33;103045.50;;;0.06;100.00
19128;BME280;9696;53.686;10.094;2023-02-28T07:12:02;103054.75;;;0.36;100.00
19128;BME280;9696;53.686;10.094;2023-02-28T07:14:31;103046.03;;;0.52;100.00
19128;BME280;9696;53.686;10.094;2023-02-28T07:17:00;103057.81;;;0.83;100.00
19128;BME280;9696;53.686;10.094;2023-02-28T07:19:31;103055.16;;;0.94;100.00
19128;BME280;9696;53.686;10.094;2023-02-28T07:22:00;103050.44;;;0.42;100.00
19128;BME280;9696;53.686;10.094;2023-02-28T07:24:30;103061.16;;;0.96;100.00
19128;BME280;9696;53.686;10.094;2023-02-28T07:27:00;103055.75;;;1.19;100.00
19128;BME280;9696;53.686;10.094;2023-02-28T07:29:29;103055.56;;;1.38;100.00
19128;BME280;9696;53.686;10.094;2023-02-28T07:31:58;103061.59;;;1.39;100.00
19128;BME280;9696;53.686;10.094;2023-02-28T07:34:27;103053.44;;;0.91;100.00
19128;BME280;9696;53.686;10.094;2023-02-28T07:36:58;103053.25;;;1.13;100.00
19128;BME280;9696;53.686;10.094;2023-02-28T07:39:27;103047.06;;;1.29;100.00
19128;BME280;9696;53.686;10.094;2023-02-28T07:41:56;103059.75;;;1.50;100.00
19128;BME280;9696;53.686;10.094;2023-02-28T07:44:27;103059.81;;;1.42;100.00
19128;BME280;9696;53.686;10.094;2023-02-28T07:46:56;103060.88;;;1.23;100.00
19128;BME280;9696;53.686;10.094;2023-02-28T07:49:25;103071.91;;;1.42;100.00
19128;BME280;9696;53.686;10.094;2023-02-28T07:51:54;103063.06;;;1.60;100.00
19128;BME280;9696;53.686;10.094;2023-02-28T07:54:25;103059.84;;;1.41;100.00
19128;BME280;9696;53.686;10.094;2023-02-28T07:56:54;103070.94;;;1.52;100.00
19128;BME280;9696;53.686;10.094;2023-02-28T07:59:23;103075.91;;;1.69;100.00
19128;BME280;9696;53.686;10.094;2023-02-28T08:01:52;103075.81;;;1.76;100.00
19128;BME280;9696;53.686;10.094;2023-02-28T08:04:22;103064.94;;;2.16;100.00
19128;BME280;9696;53.686;10.094;2023-02-28T08:06:51;103072.53;;;2.26;100.00
19128;BME280;9696;53.686;10.094;2023-02-28T08:09:20;103078.81;;;2.10;100.00
19128;BME280;9696;53.686;10.094;2023-02-28T08:11:51;103066.38;;;2.35;100.00
19128;BME280;9696;53.686;10.094;2023-02-28T08:14:20;103065.34;;;2.48;100.00
19128;BME280;9696;53.686;10.094;2023-02-28T08:16:49;103065.22;;;3.06;100.00
19128;BME280;9696;53.686;10.094;2023-02-28T08:19:18;103072.97;;;3.08;100.00
19128;BME280;9696;53.686;10.094;2023-02-28T08:21:47;103072.53;;;2.81;100.00
19128;BME280;9696;53.686;10.094;2023-02-28T08:24:16;103072.94;;;3.09;100.00
19128;BME280;9696;53.686;10.094;2023-02-28T08:26:45;103070.53;;;2.99;100.00
19128;BME280;9696;53.686;10.094;2023-02-28T08:29:16;103069.75;;;2.95;100.00
19128;BME280;9696;53.686;10.094;2023-02-28T08:31:45;103069.75;;;2.95;100.00
19128;BME280;9696;53.686;10.094;2023-02-28T08:34:15;103071.19;;;3.11;100.00
19128;BME280;9696;53.686;10.094;2023-02-28T08:36:45;103070.25;;;3.15;100.00
19128;BME280;9696;53.686;10.094;2023-02-28T08:39:14;103076.28;;;3.16;100.00
19128;BME280;9696;53.686;10.094;2023-02-28T08:41:43;103074.56;;;3.15;100.00
19128;BME280;9696;53.686;10.094;2023-02-28T08:44:17;103076.53;;;3.02;100.00
19128;BME280;9696;53.686;10.094;2023-02-28T08:46:46;103074.44;;;3.22;100.00
19128;BME280;9696;53.686;10.094;2023-02-28T08:49:15;103077.09;;;3.19;100.00
19128;BME280;9696;53.686;10.094;2023-02-28T08:51:44;103083.66;;;3.37;100.00
19128;BME280;9696;53.686;10.094;2023-02-28T08:54:13;103080.28;;;3.33;100.00
19128;BME280;9696;53.686;10.094;2023-02-28T08:56:47;103078.69;;;3.71;100.00
19128;BME280;9696;53.686;10.094;2023-02-28T08:59:17;103083.56;;;3.85;100.00
19128;BME280;9696;53.686;10.094;2023-02-28T09:01:47;103073.88;;;3.94;100.00
19128;BME280;9696;53.686;10.094;2023-02-28T09:04:16;103079.50;;;4.14;100.00
19128;BME280;9696;53.686;10.094;2023-02-28T09:06:47;103089.19;;;4.45;100.00
19128;BME280;9696;53.686;10.094;2023-02-28T09:09:17;103079.28;;;4.60;100.00
19128;BME280;9696;53.686;10.094;2023-02-28T09:11:46;103088.28;;;5.16;100.00
19128;BME280;9696;53.686;10.094;2023-02-28T09:14:16;103091.34;;;5.63;100.00
19128;BME280;9696;53.686;10.094;2023-02-28T09:16:46;103084.13;;;5.73;100.00
19128;BME280;9696;53.686;10.094;2023-02-28T09:19:15;103086.34;;;5.85;100.00
19128;BME280;9696;53.686;10.094;2023-02-28T09:21:44;103086.81;;;5.39;100.00
19128;BME280;9696;53.686;10.094;2023-02-28T09:24:13;103085.56;;;5.83;100.00
19128;BME280;9696;53.686;10.094;2023-02-28T09:26:43;103082.03;;;5.54;100.00
19128;BME280;9696;53.686;10.094;2023-02-28T09:29:32;103088.50;;;6.31;100.00
19128;BME280;9696;53.686;10.094;2023-02-28T09:32:02;103087.63;;;6.02;100.00
19128;BME280;9696;53.686;10.094;2023-02-28T09:34:33;103093.50;;;6.37;100.00
19128;BME280;9696;53.686;10.094;2023-02-28T09:37:04;103094.56;;;6.02;100.00
19128;BME280;9696;53.686;10.094;2023-02-28T09:39:34;103088.09;;;6.71;100.00
19128;BME280;9696;53.686;10.094;2023-02-28T09:42:04;103087.13;;;6.73;100.00
19128;BME280;9696;53.686;10.094;2023-02-28T09:44:37;103089.44;;;6.82;100.00
19128;BME280;9696;53.686;10.094;2023-02-28T09:47:13;103092.50;;;6.95;100.00
19128;BME280;9696;53.686;10.094;2023-02-28T09:49:47;103090.47;;;6.50;100.00
19128;BME280;9696;53.686;10.094;2023-02-28T09:52:19;103098.16;;;6.81;100.00
19128;BME280;9696;53.686;10.094;2023-02-28T09:54:50;103091.19;;;6.82;100.00
19128;BME280;9696;53.686;10.094;2023-02-28T09:57:23;103093.25;;;6.72;100.00
19128;BME280;9696;53.686;10.094;2023-02-28T10:00:06;103098.13;;;7.34;100.00
19128;BME280;9696;53.686;10.094;2023-02-28T10:02:53;103088.88;;;6.73;100.00
19128;BME280;9696;53.686;10.094;2023-02-28T10:05:28;103100.19;;;6.45;100.00
19128;BME280;9696;53.686;10.094;2023-02-28T10:08:08;103092.44;;;6.96;100.00
19128;BME280;9696;53.686;10.094;2023-02-28T10:10:41;103090.50;;;7.03;98.96
19128;BME280;9696;53.686;10.094;2023-02-28T10:13:20;103082.75;;;7.00;99.32
19128;BME280;9696;53.686;10.094;2023-02-28T10:15:56;103091.91;;;7.61;98.57
19128;BME280;9696;53.686;10.094;2023-02-28T10:18:34;103090.34;;;7.32;100.00
19128;BME280;9696;53.686;10.094;2023-02-28T10:21:17;103093.84;;;7.56;99.57
19128;BME280;9696;53.686;10.094;2023-02-28T10:23:49;103085.53;;;7.45;97.34
19128;BME280;9696;53.686;10.094;2023-02-28T10:26:18;103087.63;;;6.84;99.92
19128;BME280;9696;53.686;10.094;2023-02-28T10:28:48;103092.09;;;7.07;99.45
19128;BME280;9696;53.686;10.094;2023-02-28T10:31:19;103100.03;;;6.51;98.36
19128;BME280;9696;53.686;10.094;2023-02-28T10:33:50;103086.81;;;7.08;98.81
19128;BME280;9696;53.686;10.094;2023-02-28T10:36:20;103080.16;;;7.49;92.09
19128;BME280;9696;53.686;10.094;2023-02-28T10:38:50;103093.16;;;7.26;93.71
19128;BME280;9696;53.686;10.094;2023-02-28T10:41:28;103082.78;;;7.96;91.43
19128;BME280;9696;53.686;10.094;2023-02-28T10:44:17;103087.88;;;7.99;90.84
19128;BME280;9696;53.686;10.094;2023-02-28T10:46:50;103090.31;;;8.03;88.37
19128;BME280;9696;53.686;10.094;2023-02-28T10:49:22;103086.75;;;7.83;89.68
19128;BME280;9696;53.686;10.094;2023-02-28T10:51:53;103090.97;;;7.39;89.04
19128;BME280;9696;53.686;10.094;2023-02-28T10:54:27;103092.66;;;7.15;89.54
19128;BME280;9696;53.686;10.094;2023-02-28T10:57:15;103091.22;;;7.56;87.06
19128;BME280;9696;53.686;10.094;2023-02-28T10:59:45;103092.09;;;7.32;87.07
19128;BME280;9696;53.686;10.094;2023-02-28T11:02:32;103096.63;;;7.27;87.22
19128;BME280;9696;53.686;10.094;2023-02-28T11:05:14;103093.91;;;7.78;82.26
19128;BME280;9696;53.686;10.094;2023-02-28T11:07:53;103083.09;;;8.33;77.35
19128;BME280;9696;53.686;10.094;2023-02-28T11:10:25;103085.47;;;8.61;74.85
19128;BME280;9696;53.686;10.094;2023-02-28T11:12:56;103090.88;;;7.42;81.65
19128;BME280;9696;53.686;10.094;2023-02-28T11:15:30;103086.66;;;8.31;79.05
19128;BME280;9696;53.686;10.094;2023-02-28T11:18:02;103078.41;;;8.63;75.08
19128;BME280;9696;53.686;10.094;2023-02-28T11:20:49;103086.47;;;8.79;69.34
19128;BME280;9696;53.686;10.094;2023-02-28T11:23:23;103082.88;;;8.16;74.76
19128;BME280;9696;53.686;10.094;2023-02-28T11:25:54;103082.44;;;8.05;78.80
19128;BME280;9696;53.686;10.094;2023-02-28T11:28:28;103075.34;;;8.74;68.54
19128;BME280;9696;53.686;10.094;2023-02-28T11:31:17;103078.22;;;9.48;70.31
19128;BME280;9696;53.686;10.094;2023-02-28T11:33:49;103073.06;;;7.76;69.67
19128;BME280;9696;53.686;10.094;2023-02-28T11:36:22;103070.72;;;7.92;73.78
19128;BME280;9696;53.686;10.094;2023-02-28T11:38:54;103061.66;;;8.67;71.51
19128;BME280;9696;53.686;10.094;2023-02-28T11:41:35;103062.91;;;8.79;63.90
19128;BME280;9696;53.686;10.094;2023-02-28T11:44:22;103066.00;;;9.29;60.10
19128;BME280;9696;53.686;10.094;2023-02-28T11:46:56;103062.91;;;8.79;60.06
19128;BME280;9696;53.686;10.094;2023-02-28T11:49:32;103057.97;;;8.06;60.90
19128;BME280;9696;53.686;10.094;2023-02-28T11:52:13;103049.13;;;8.75;60.65
19128;BME280;9696;53.686;10.094;2023-02-28T11:54:59;103054.31;;;8.55;59.39
19128;BME280;9696;53.686;10.094;2023-02-28T11:57:38;103049.25;;;9.13;56.12
19128;BME280;9696;53.686;10.094;2023-02-28T12:00:24;103040.78;;;8.22;57.10
19128;BME280;9696;53.686;10.094;2023-02-28T12:03:03;103043.84;;;8.55;61.55
19128;BME280;9696;53.686;10.094;2023-02-28T12:05:43;103035.16;;;9.35;57.55
19128;BME280;9696;53.686;10.094;2023-02-28T12:08:26;103043.28;;;9.09;56.40
19128;BME280;9696;53.686;10.094;2023-02-28T12:11:09;103037.41;;;9.82;54.85
19128;BME280;9696;53.686;10.094;2023-02-28T12:13:48;103026.78;;;9.27;54.49
19128;BME280;9696;53.686;10.094;2023-02-28T12:16:38;103030.53;;;10.17;50.76
19128;BME280;9696;53.686;10.094;2023-02-28T12:19:20;103027.50;;;8.70;56.27
19128;BME280;9696;53.686;10.094;2023-02-28T12:22:17;103012.44;;;10.29;49.31
19128;BME280;9696;53.686;10.094;2023-02-28T12:25:02;103016.41;;;10.01;48.08
19128;BME280;9696;53.686;10.094;2023-02-28T12:27:41;103012.16;;;9.98;46.78
19128;BME280;9696;53.686;10.094;2023-02-28T12:30:16;103006.59;;;9.29;47.47
19128;BME280;9696;53.686;10.094;2023-02-28T12:32:51;103004.13;;;8.45;50.83
19128;BME280;9696;53.686;10.094;2023-02-28T12:35:26;103004.09;;;9.46;45.86
19128;BME280;9696;53.686;10.094;2023-02-28T12:38:05;102997.66;;;9.54;43.81
19128;BME280;9696;53.686;10.094;2023-02-28T12:40:45;102991.97;;;10.36;43.79
19128;BME280;9696;53.686;10.094;2023-02-28T12:43:18;102981.66;;;10.50;44.12
19128;BME280;9696;53.686;10.094;2023-02-28T12:45:51;102972.97;;;10.82;45.20
19128;BME280;9696;53.686;10.094;2023-02-28T12:48:28;102986.56;;;8.89;45.48
19128;BME280;9696;53.686;10.094;2023-02-28T12:51:01;102971.31;;;9.38;45.09
19128;BME280;9696;53.686;10.094;2023-02-28T12:53:39;102969.75;;;9.34;44.33
19128;BME280;9696;53.686;10.094;2023-02-28T12:56:17;102971.94;;;9.43;43.08
19128;BME280;9696;53.686;10.094;2023-02-28T12:58:53;102964.97;;;10.34;42.28
19128;BME280;9696;53.686;10.094;2023-02-28T13:01:42;102962.38;;;10.34;42.08
19128;BME280;9696;53.686;10.094;2023-02-28T13:07:39;102965.59;;;10.56;40.65
19128;BME280;9696;53.686;10.094;2023-02-28T13:10:16;102958.13;;;10.13;42.50
19128;BME280;9696;53.686;10.094;2023-02-28T13:12:51;102950.44;;;11.44;42.47
19128;BME280;9696;53.686;10.094;2023-02-28T13:15:23;102950.00;;;10.19;42.52
19128;BME280;9696;53.686;10.094;2023-02-28T13:17:54;102947.94;;;10.43;43.60
19128;BME280;9696;53.686;10.094;2023-02-28T13:20:26;102944.28;;;9.92;44.74
19128;BME280;9696;53.686;10.094;2023-02-28T13:22:58;102943.78;;;10.38;42.07
19128;BME280;9696;53.686;10.094;2023-02-28T13:25:51;102935.88;;;10.56;44.40
19128;BME280;9696;53.686;10.094;2023-02-28T13:34:38;102938.13;;;10.29;46.55
19128;BME280;9696;53.686;10.094;2023-02-28T13:37:36;102937.22;;;10.30;46.12